sensor_id;sensor_type;location;lat;lon;timestamp;P1;durP1;ratioP1;P2;durP2;ratioP2
33553;SDS011;19885;42.208;24.952;2022-12-13T00:01:29;1.33;;;0.90;;
33553;SDS011;19885;42.208;24.952;2022-12-13T00:03:56;1.00;;;1.00;;
33553;SDS011;19885;42.208;24.952;2022-12-13T00:06:23;1.03;;;1.03;;
33553;SDS011;19885;42.208;24.952;2022-12-13T00:08:49;1.50;;;1.20;;
33553;SDS011;19885;42.208;24.952;2022-12-13T00:11:14;0.80;;;0.80;;
33553;SDS011;19885;42.208;24.952;2022-12-13T00:13:41;1.33;;;1.23;;
33553;SDS011;19885;42.208;24.952;2022-12-13T00:16:09;1.30;;;1.30;;
33553;SDS011;19885;42.208;24.952;2022-12-13T00:18:36;1.30;;;1.20;;
33553;SDS011;19885;42.208;24.952;2022-12-13T00:21:05;1.50;;;1.40;;
33553;SDS011;19885;42.208;24.952;2022-12-13T00:23:32;1.13;;;1.07;;
33553;SDS011;19885;42.208;24.952;2022-12-13T00:26:05;1.20;;;1.10;;
33553;SDS011;19885;42.208;24.952;2022-12-13T00:28:32;1.40;;;1.27;;
33553;SDS011;19885;42.208;24.952;2022-12-13T00:30:58;1.30;;;1.20;;
33553;SDS011;19885;42.208;24.952;2022-12-13T00:33:24;1.53;;;1.43;;
33553;SDS011;19885;42.208;24.952;2022-12-13T00:35:50;1.50;;;1.33;;
33553;SDS011;19885;42.208;24.952;2022-12-13T00:38:16;2.17;;;1.70;;
33553;SDS011;19885;42.208;24.952;2022-12-13T00:40:42;1.73;;;1.30;;
33553;SDS011;19885;42.208;24.952;2022-12-13T00:43:07;2.10;;;1.83;;
33553;SDS011;19885;42.208;24.952;2022-12-13T00:45:33;2.57;;;1.70;;
33553;SDS011;19885;42.208;24.952;2022-12-13T00:47:58;1.70;;;1.53;;
33553;SDS011;19885;42.208;24.952;2022-12-13T00:50:24;1.87;;;1.50;;
33553;SDS011;19885;42.208;24.952;2022-12-13T00:52:50;2.33;;;2.13;;
33553;SDS011;19885;42.208;24.952;2022-12-13T00:55:15;1.70;;;1.50;;
33553;SDS011;19885;42.208;24.952;2022-12-13T00:57:41;2.30;;;2.10;;
33553;SDS011;19885;42.208;24.952;2022-12-13T01:00:06;2.27;;;1.90;;
33553;SDS011;19885;42.208;24.952;2022-12-13T01:02:33;1.97;;;1.73;;
33553;SDS011;19885;42.208;24.952;2022-12-13T01:04:59;2.27;;;2.07;;
33553;SDS011;19885;42.208;24.952;2022-12-13T01:07:25;2.83;;;1.93;;
33553;SDS011;19885;42.208;24.952;2022-12-13T01:09:50;2.30;;;2.10;;
33553;SDS011;19885;42.208;24.952;2022-12-13T01:12:16;2.73;;;2.20;;
33553;SDS011;19885;42.208;24.952;2022-12-13T01:14:42;2.33;;;2.00;;
33553;SDS011;19885;42.208;24.952;2022-12-13T01:17:07;2.27;;;1.93;;
33553;SDS011;19885;42.208;24.952;2022-12-13T01:19:33;2.43;;;2.17;;
33553;SDS011;19885;42.208;24.952;2022-12-13T01:22:00;4.90;;;2.57;;
33553;SDS011;19885;42.208;24.952;2022-12-13T01:24:29;2.87;;;2.17;;
33553;SDS011;19885;42.208;24.952;2022-12-13T01:26:56;2.33;;;2.13;;
33553;SDS011;19885;42.208;24.952;2022-12-13T01:29:22;3.53;;;2.60;;
33553;SDS011;19885;42.208;24.952;2022-12-13T01:31:48;2.70;;;2.50;;
33553;SDS011;19885;42.208;24.952;2022-12-13T01:34:15;2.73;;;2.37;;
33553;SDS011;19885;42.208;24.952;2022-12-13T01:36:43;3.13;;;2.83;;
33553;SDS011;19885;42.208;24.952;2022-12-13T01:39:10;2.97;;;2.57;;
33553;SDS011;19885;42.208;24.952;2022-12-13T01:41:36;3.23;;;2.13;;
33553;SDS011;19885;42.208;24.952;2022-12-13T01:44:06;2.90;;;2.40;;
33553;SDS011;19885;42.208;24.952;2022-12-13T01:47:09;3.13;;;2.27;;
33553;SDS011;19885;42.208;24.952;2022-12-13T01:49:35;3.43;;;2.53;;
33553;SDS011;19885;42.208;24.952;2022-12-13T01:52:02;3.60;;;2.83;;
33553;SDS011;19885;42.208;24.952;2022-12-13T01:54:33;2.83;;;2.50;;
33553;SDS011;19885;42.208;24.952;2022-12-13T01:57:03;4.20;;;3.43;;
33553;SDS011;19885;42.208;24.952;2022-12-13T01:59:35;4.17;;;3.00;;
33553;SDS011;19885;42.208;24.952;2022-12-13T02:02:04;3.87;;;2.80;;
33553;SDS011;19885;42.208;24.952;2022-12-13T02:04:33;3.53;;;3.10;;
33553;SDS011;19885;42.208;24.952;2022-12-13T02:07:04;4.67;;;2.67;;
33553;SDS011;19885;42.208;24.952;2022-12-13T02:09:31;3.80;;;2.97;;
33553;SDS011;19885;42.208;24.952;2022-12-13T02:11:59;3.17;;;2.83;;
33553;SDS011;19885;42.208;24.952;2022-12-13T02:14:26;5.53;;;3.40;;
33553;SDS011;19885;42.208;24.952;2022-12-13T02:23:05;4.07;;;3.20;;
33553;SDS011;19885;42.208;24.952;2022-12-13T02:31:08;3.40;;;3.10;;
33553;SDS011;19885;42.208;24.952;2022-12-13T02:36:29;3.20;;;2.50;;
33553;SDS011;19885;42.208;24.952;2022-12-13T02:39:02;3.33;;;3.00;;
33553;SDS011;19885;42.208;24.952;2022-12-13T02:41:45;4.33;;;3.33;;
33553;SDS011;19885;42.208;24.952;2022-12-13T02:47:34;3.73;;;2.83;;
33553;SDS011;19885;42.208;24.952;2022-12-13T02:49:41;3.80;;;3.03;;
33553;SDS011;19885;42.208;24.952;2022-12-13T02:52:11;3.60;;;3.10;;
33553;SDS011;19885;42.208;24.952;2022-12-13T02:54:39;3.20;;;2.90;;
33553;SDS011;19885;42.208;24.952;2022-12-13T02:57:25;7.30;;;3.67;;
33553;SDS011;19885;42.208;24.952;2022-12-13T02:59:55;3.13;;;2.83;;
33553;SDS011;19885;42.208;24.952;2022-12-13T03:11:13;3.60;;;3.07;;
33553;SDS011;19885;42.208;24.952;2022-12-13T03:13:47;3.40;;;3.10;;
33553;SDS011;19885;42.208;24.952;2022-12-13T03:16:26;3.73;;;3.23;;
33553;SDS011;19885;42.208;24.952;2022-12-13T03:19:05;4.87;;;3.60;;
33553;SDS011;19885;42.208;24.952;2022-12-13T03:21:50;3.77;;;2.83;;
33553;SDS011;19885;42.208;24.952;2022-12-13T03:24:16;4.70;;;3.30;;
33553;SDS011;19885;42.208;24.952;2022-12-13T03:26:44;7.57;;;4.73;;
33553;SDS011;19885;42.208;24.952;2022-12-13T03:29:11;4.50;;;3.20;;
33553;SDS011;19885;42.208;24.952;2022-12-13T03:31:36;4.80;;;2.90;;
33553;SDS011;19885;42.208;24.952;2022-12-13T03:34:02;3.83;;;2.90;;
33553;SDS011;19885;42.208;24.952;2022-12-13T03:36:27;5.37;;;3.33;;
33553;SDS011;19885;42.208;24.952;2022-12-13T03:38:53;5.10;;;3.30;;
33553;SDS011;19885;42.208;24.952;2022-12-13T03:41:20;5.80;;;3.43;;
33553;SDS011;19885;42.208;24.952;2022-12-13T03:43:48;4.67;;;3.37;;
33553;SDS011;19885;42.208;24.952;2022-12-13T03:46:14;4.63;;;2.83;;
33553;SDS011;19885;42.208;24.952;2022-12-13T03:48:40;4.50;;;3.53;;
33553;SDS011;19885;42.208;24.952;2022-12-13T03:51:05;5.37;;;3.90;;
33553;SDS011;19885;42.208;24.952;2022-12-13T03:53:31;5.33;;;3.30;;
33553;SDS011;19885;42.208;24.952;2022-12-13T03:55:57;8.10;;;3.77;;
33553;SDS011;19885;42.208;24.952;2022-12-13T03:58:22;4.10;;;3.63;;
33553;SDS011;19885;42.208;24.952;2022-12-13T04:00:48;8.47;;;5.40;;
33553;SDS011;19885;42.208;24.952;2022-12-13T04:03:13;6.13;;;4.97;;
33553;SDS011;19885;42.208;24.952;2022-12-13T04:05:39;4.23;;;3.30;;
33553;SDS011;19885;42.208;24.952;2022-12-13T04:08:05;4.47;;;3.07;;
33553;SDS011;19885;42.208;24.952;2022-12-13T04:10:30;3.90;;;2.83;;
33553;SDS011;19885;42.208;24.952;2022-12-13T04:12:56;5.57;;;2.93;;
33553;SDS011;19885;42.208;24.952;2022-12-13T04:15:39;4.20;;;2.90;;
33553;SDS011;19885;42.208;24.952;2022-12-13T04:18:13;4.30;;;3.73;;
33553;SDS011;19885;42.208;24.952;2022-12-13T04:20:40;4.03;;;3.33;;
33553;SDS011;19885;42.208;24.952;2022-12-13T04:23:05;3.97;;;3.10;;
33553;SDS011;19885;42.208;24.952;2022-12-13T04:25:31;3.70;;;3.10;;
33553;SDS011;19885;42.208;24.952;2022-12-13T04:27:56;4.60;;;3.33;;
33553;SDS011;19885;42.208;24.952;2022-12-13T04:30:21;3.53;;;2.97;;
33553;SDS011;19885;42.208;24.952;2022-12-13T04:32:47;4.07;;;3.17;;
33553;SDS011;19885;42.208;24.952;2022-12-13T04:35:12;3.90;;;3.27;;
33553;SDS011;19885;42.208;24.952;2022-12-13T04:37:38;4.03;;;3.30;;
33553;SDS011;19885;42.208;24.952;2022-12-13T04:40:03;5.17;;;3.10;;
33553;SDS011;19885;42.208;24.952;2022-12-13T04:42:29;4.27;;;3.00;;
33553;SDS011;19885;42.208;24.952;2022-12-13T04:44:55;3.83;;;3.07;;
33553;SDS011;19885;42.208;24.952;2022-12-13T04:47:21;5.30;;;3.97;;
33553;SDS011;19885;42.208;24.952;2022-12-13T04:49:46;3.50;;;3.00;;
33553;SDS011;19885;42.208;24.952;2022-12-13T04:52:12;5.60;;;3.03;;
33553;SDS011;19885;42.208;24.952;2022-12-13T04:54:37;7.73;;;3.30;;
33553;SDS011;19885;42.208;24.952;2022-12-13T04:57:06;7.17;;;4.20;;
33553;SDS011;19885;42.208;24.952;2022-12-13T04:59:34;3.53;;;2.67;;
33553;SDS011;19885;42.208;24.952;2022-12-13T05:02:00;5.77;;;3.30;;
33553;SDS011;19885;42.208;24.952;2022-12-13T05:04:25;19.93;;;3.97;;
33553;SDS011;19885;42.208;24.952;2022-12-13T05:06:51;4.17;;;3.70;;
33553;SDS011;19885;42.208;24.952;2022-12-13T05:09:16;7.33;;;4.00;;
33553;SDS011;19885;42.208;24.952;2022-12-13T05:11:42;5.33;;;3.50;;
33553;SDS011;19885;42.208;24.952;2022-12-13T05:14:07;5.60;;;3.40;;
33553;SDS011;19885;42.208;24.952;2022-12-13T05:16:33;3.97;;;3.00;;
33553;SDS011;19885;42.208;24.952;2022-12-13T05:18:58;4.20;;;3.30;;
33553;SDS011;19885;42.208;24.952;2022-12-13T05:21:23;6.00;;;3.30;;
33553;SDS011;19885;42.208;24.952;2022-12-13T05:23:49;5.07;;;3.60;;
33553;SDS011;19885;42.208;24.952;2022-12-13T05:26:14;7.40;;;3.93;;
33553;SDS011;19885;42.208;24.952;2022-12-13T05:28:40;9.20;;;3.87;;
33553;SDS011;19885;42.208;24.952;2022-12-13T05:31:06;4.97;;;3.57;;
33553;SDS011;19885;42.208;24.952;2022-12-13T05:33:33;4.37;;;3.20;;
33553;SDS011;19885;42.208;24.952;2022-12-13T05:35:59;4.50;;;3.57;;
33553;SDS011;19885;42.208;24.952;2022-12-13T05:38:24;7.30;;;3.60;;
33553;SDS011;19885;42.208;24.952;2022-12-13T05:40:50;3.33;;;2.83;;
33553;SDS011;19885;42.208;24.952;2022-12-13T05:43:15;3.80;;;3.10;;
33553;SDS011;19885;42.208;24.952;2022-12-13T05:45:40;4.67;;;3.37;;
33553;SDS011;19885;42.208;24.952;2022-12-13T05:48:06;5.60;;;3.43;;
33553;SDS011;19885;42.208;24.952;2022-12-13T05:50:33;5.93;;;3.63;;
33553;SDS011;19885;42.208;24.952;2022-12-13T05:52:58;5.20;;;3.60;;
33553;SDS011;19885;42.208;24.952;2022-12-13T05:55:24;6.27;;;4.13;;
33553;SDS011;19885;42.208;24.952;2022-12-13T05:57:49;6.87;;;4.13;;
33553;SDS011;19885;42.208;24.952;2022-12-13T06:00:15;8.60;;;4.27;;
33553;SDS011;19885;42.208;24.952;2022-12-13T06:02:41;7.83;;;3.97;;
33553;SDS011;19885;42.208;24.952;2022-12-13T06:05:08;3.87;;;3.07;;
33553;SDS011;19885;42.208;24.952;2022-12-13T06:07:35;4.60;;;3.10;;
33553;SDS011;19885;42.208;24.952;2022-12-13T06:10:01;4.13;;;2.97;;
33553;SDS011;19885;42.208;24.952;2022-12-13T06:12:27;4.47;;;3.60;;
33553;SDS011;19885;42.208;24.952;2022-12-13T06:14:53;5.93;;;3.50;;
33553;SDS011;19885;42.208;24.952;2022-12-13T06:17:18;8.17;;;5.13;;
33553;SDS011;19885;42.208;24.952;2022-12-13T06:19:44;6.27;;;4.13;;
33553;SDS011;19885;42.208;24.952;2022-12-13T06:22:10;6.07;;;3.30;;
33553;SDS011;19885;42.208;24.952;2022-12-13T06:24:36;4.17;;;3.23;;
33553;SDS011;19885;42.208;24.952;2022-12-13T06:27:02;8.07;;;4.00;;
33553;SDS011;19885;42.208;24.952;2022-12-13T06:29:29;7.37;;;4.80;;
33553;SDS011;19885;42.208;24.952;2022-12-13T06:31:56;4.47;;;3.20;;
33553;SDS011;19885;42.208;24.952;2022-12-13T06:34:23;5.27;;;3.77;;
33553;SDS011;19885;42.208;24.952;2022-12-13T06:36:48;5.33;;;3.80;;
33553;SDS011;19885;42.208;24.952;2022-12-13T06:39:14;5.70;;;3.93;;
33553;SDS011;19885;42.208;24.952;2022-12-13T06:41:42;6.90;;;4.00;;
33553;SDS011;19885;42.208;24.952;2022-12-13T06:44:08;5.90;;;4.00;;
33553;SDS011;19885;42.208;24.952;2022-12-13T06:46:33;9.10;;;5.67;;
33553;SDS011;19885;42.208;24.952;2022-12-13T06:48:59;6.87;;;4.80;;
33553;SDS011;19885;42.208;24.952;2022-12-13T06:51:25;7.93;;;4.80;;
33553;SDS011;19885;42.208;24.952;2022-12-13T06:53:51;7.23;;;4.90;;
33553;SDS011;19885;42.208;24.952;2022-12-13T06:56:17;8.33;;;4.23;;
33553;SDS011;19885;42.208;24.952;2022-12-13T06:58:43;8.77;;;4.33;;
33553;SDS011;19885;42.208;24.952;2022-12-13T07:01:09;7.10;;;4.67;;
33553;SDS011;19885;42.208;24.952;2022-12-13T07:03:36;7.40;;;4.13;;
33553;SDS011;19885;42.208;24.952;2022-12-13T07:06:02;7.40;;;4.47;;
33553;SDS011;19885;42.208;24.952;2022-12-13T07:08:30;7.93;;;4.27;;
33553;SDS011;19885;42.208;24.952;2022-12-13T07:10:55;4.93;;;3.37;;
33553;SDS011;19885;42.208;24.952;2022-12-13T07:13:21;4.97;;;4.00;;
33553;SDS011;19885;42.208;24.952;2022-12-13T07:15:47;4.90;;;3.20;;
33553;SDS011;19885;42.208;24.952;2022-12-13T07:18:14;8.67;;;4.33;;
33553;SDS011;19885;42.208;24.952;2022-12-13T07:20:40;15.87;;;7.47;;
33553;SDS011;19885;42.208;24.952;2022-12-13T07:23:07;9.03;;;5.37;;
33553;SDS011;19885;42.208;24.952;2022-12-13T07:25:32;5.73;;;3.33;;
33553;SDS011;19885;42.208;24.952;2022-12-13T07:27:59;6.33;;;4.07;;
33553;SDS011;19885;42.208;24.952;2022-12-13T07:30:26;6.70;;;4.30;;
33553;SDS011;19885;42.208;24.952;2022-12-13T07:32:52;6.43;;;4.30;;
33553;SDS011;19885;42.208;24.952;2022-12-13T07:35:17;5.77;;;3.47;;
33553;SDS011;19885;42.208;24.952;2022-12-13T07:37:43;6.97;;;4.33;;
33553;SDS011;19885;42.208;24.952;2022-12-13T07:40:09;6.57;;;4.03;;
33553;SDS011;19885;42.208;24.952;2022-12-13T07:42:34;7.13;;;3.50;;
33553;SDS011;19885;42.208;24.952;2022-12-13T07:45:00;5.83;;;4.10;;
33553;SDS011;19885;42.208;24.952;2022-12-13T07:47:29;7.73;;;4.27;;
33553;SDS011;19885;42.208;24.952;2022-12-13T07:49:55;4.30;;;3.13;;
33553;SDS011;19885;42.208;24.952;2022-12-13T07:52:21;5.93;;;3.77;;
33553;SDS011;19885;42.208;24.952;2022-12-13T07:54:46;8.57;;;4.50;;
33553;SDS011;19885;42.208;24.952;2022-12-13T07:57:12;4.83;;;3.70;;
33553;SDS011;19885;42.208;24.952;2022-12-13T07:59:37;6.80;;;3.90;;
33553;SDS011;19885;42.208;24.952;2022-12-13T08:02:04;5.77;;;3.73;;
33553;SDS011;19885;42.208;24.952;2022-12-13T08:04:30;5.47;;;3.60;;
33553;SDS011;19885;42.208;24.952;2022-12-13T08:06:55;7.57;;;3.80;;
33553;SDS011;19885;42.208;24.952;2022-12-13T08:09:21;6.63;;;4.70;;
33553;SDS011;19885;42.208;24.952;2022-12-13T08:11:47;6.90;;;4.87;;
33553;SDS011;19885;42.208;24.952;2022-12-13T08:14:13;6.57;;;4.30;;
33553;SDS011;19885;42.208;24.952;2022-12-13T08:16:38;7.07;;;3.93;;
33553;SDS011;19885;42.208;24.952;2022-12-13T08:19:04;4.60;;;3.30;;
33553;SDS011;19885;42.208;24.952;2022-12-13T08:21:39;6.23;;;4.40;;
33553;SDS011;19885;42.208;24.952;2022-12-13T08:24:05;5.43;;;3.93;;
33553;SDS011;19885;42.208;24.952;2022-12-13T08:26:33;5.40;;;3.80;;
33553;SDS011;19885;42.208;24.952;2022-12-13T08:28:59;6.70;;;4.40;;
33553;SDS011;19885;42.208;24.952;2022-12-13T08:31:25;5.97;;;3.87;;
33553;SDS011;19885;42.208;24.952;2022-12-13T08:33:50;5.10;;;3.73;;
33553;SDS011;19885;42.208;24.952;2022-12-13T08:36:16;6.87;;;3.47;;
33553;SDS011;19885;42.208;24.952;2022-12-13T08:38:43;5.53;;;4.10;;
33553;SDS011;19885;42.208;24.952;2022-12-13T08:41:09;4.17;;;3.57;;
33553;SDS011;19885;42.208;24.952;2022-12-13T08:43:35;6.30;;;3.67;;
33553;SDS011;19885;42.208;24.952;2022-12-13T08:46:01;5.87;;;3.90;;
33553;SDS011;19885;42.208;24.952;2022-12-13T08:48:27;6.10;;;3.70;;
33553;SDS011;19885;42.208;24.952;2022-12-13T08:50:53;6.57;;;3.93;;
33553;SDS011;19885;42.208;24.952;2022-12-13T08:53:18;7.03;;;3.93;;
33553;SDS011;19885;42.208;24.952;2022-12-13T08:55:44;6.10;;;4.00;;
33553;SDS011;19885;42.208;24.952;2022-12-13T08:58:09;6.80;;;4.17;;
33553;SDS011;19885;42.208;24.952;2022-12-13T09:00:35;9.07;;;4.33;;
33553;SDS011;19885;42.208;24.952;2022-12-13T09:03:02;4.33;;;3.87;;
33553;SDS011;19885;42.208;24.952;2022-12-13T09:05:29;5.47;;;3.70;;
33553;SDS011;19885;42.208;24.952;2022-12-13T09:07:57;5.20;;;4.47;;
33553;SDS011;19885;42.208;24.952;2022-12-13T09:10:23;6.70;;;4.23;;
33553;SDS011;19885;42.208;24.952;2022-12-13T09:12:49;6.20;;;4.47;;
33553;SDS011;19885;42.208;24.952;2022-12-13T09:15:15;7.93;;;4.60;;
33553;SDS011;19885;42.208;24.952;2022-12-13T09:17:40;9.07;;;4.17;;
33553;SDS011;19885;42.208;24.952;2022-12-13T09:20:06;8.27;;;4.67;;
33553;SDS011;19885;42.208;24.952;2022-12-13T09:22:35;8.53;;;5.47;;
33553;SDS011;19885;42.208;24.952;2022-12-13T09:25:02;13.53;;;4.93;;
33553;SDS011;19885;42.208;24.952;2022-12-13T09:27:30;6.97;;;4.03;;
33553;SDS011;19885;42.208;24.952;2022-12-13T09:29:56;7.07;;;4.93;;
33553;SDS011;19885;42.208;24.952;2022-12-13T09:32:22;6.80;;;4.70;;
33553;SDS011;19885;42.208;24.952;2022-12-13T09:34:48;8.07;;;4.93;;
33553;SDS011;19885;42.208;24.952;2022-12-13T09:37:14;6.60;;;4.43;;
33553;SDS011;19885;42.208;24.952;2022-12-13T09:39:41;8.20;;;4.00;;
33553;SDS011;19885;42.208;24.952;2022-12-13T09:42:09;8.27;;;4.47;;
33553;SDS011;19885;42.208;24.952;2022-12-13T09:44:47;7.60;;;4.37;;
33553;SDS011;19885;42.208;24.952;2022-12-13T09:47:24;8.67;;;4.83;;
33553;SDS011;19885;42.208;24.952;2022-12-13T09:49:55;8.07;;;4.73;;
33553;SDS011;19885;42.208;24.952;2022-12-13T09:52:23;6.47;;;4.57;;
33553;SDS011;19885;42.208;24.952;2022-12-13T09:54:54;8.00;;;4.33;;
33553;SDS011;19885;42.208;24.952;2022-12-13T09:57:30;7.73;;;5.30;;
33553;SDS011;19885;42.208;24.952;2022-12-13T09:59:56;10.97;;;5.33;;
33553;SDS011;19885;42.208;24.952;2022-12-13T10:02:26;6.37;;;4.03;;
33553;SDS011;19885;42.208;24.952;2022-12-13T10:05:08;5.00;;;3.80;;
33553;SDS011;19885;42.208;24.952;2022-12-13T10:07:41;9.73;;;5.03;;
33553;SDS011;19885;42.208;24.952;2022-12-13T10:10:10;5.90;;;4.40;;
33553;SDS011;19885;42.208;24.952;2022-12-13T10:12:41;4.57;;;3.30;;
33553;SDS011;19885;42.208;24.952;2022-12-13T10:15:11;4.80;;;3.43;;
33553;SDS011;19885;42.208;24.952;2022-12-13T10:17:40;4.83;;;3.30;;
33553;SDS011;19885;42.208;24.952;2022-12-13T10:20:06;5.63;;;3.80;;
33553;SDS011;19885;42.208;24.952;2022-12-13T10:22:40;4.53;;;3.57;;
33553;SDS011;19885;42.208;24.952;2022-12-13T10:25:05;6.73;;;4.13;;
33553;SDS011;19885;42.208;24.952;2022-12-13T10:27:33;8.23;;;3.43;;
33553;SDS011;19885;42.208;24.952;2022-12-13T10:32:31;9.10;;;4.83;;
33553;SDS011;19885;42.208;24.952;2022-12-13T10:35:25;5.30;;;3.50;;
33553;SDS011;19885;42.208;24.952;2022-12-13T10:40:35;8.83;;;4.53;;
33553;SDS011;19885;42.208;24.952;2022-12-13T10:43:11;6.33;;;3.80;;
33553;SDS011;19885;42.208;24.952;2022-12-13T10:45:43;5.17;;;3.80;;
33553;SDS011;19885;42.208;24.952;2022-12-13T10:51:14;5.57;;;3.93;;
33553;SDS011;19885;42.208;24.952;2022-12-13T10:53:46;7.80;;;3.67;;
33553;SDS011;19885;42.208;24.952;2022-12-13T10:56:15;6.77;;;4.47;;
33553;SDS011;19885;42.208;24.952;2022-12-13T10:58:43;6.03;;;4.00;;
33553;SDS011;19885;42.208;24.952;2022-12-13T11:01:21;10.47;;;4.20;;
33553;SDS011;19885;42.208;24.952;2022-12-13T11:06:40;5.03;;;3.53;;
33553;SDS011;19885;42.208;24.952;2022-12-13T11:09:14;6.20;;;4.20;;
33553;SDS011;19885;42.208;24.952;2022-12-13T11:11:48;8.77;;;4.60;;
33553;SDS011;19885;42.208;24.952;2022-12-13T11:14:16;9.13;;;5.10;;
33553;SDS011;19885;42.208;24.952;2022-12-13T11:16:44;11.43;;;5.53;;
33553;SDS011;19885;42.208;24.952;2022-12-13T11:19:17;7.23;;;4.47;;
33553;SDS011;19885;42.208;24.952;2022-12-13T11:21:51;6.50;;;3.80;;
33553;SDS011;19885;42.208;24.952;2022-12-13T11:24:23;11.73;;;5.10;;
33553;SDS011;19885;42.208;24.952;2022-12-13T11:26:55;8.57;;;5.20;;
33553;SDS011;19885;42.208;24.952;2022-12-13T11:40:18;5.23;;;3.30;;
33553;SDS011;19885;42.208;24.952;2022-12-13T11:48:03;5.57;;;3.83;;
33553;SDS011;19885;42.208;24.952;2022-12-13T11:50:40;5.07;;;3.67;;
33553;SDS011;19885;42.208;24.952;2022-12-13T11:53:25;5.10;;;3.37;;
33553;SDS011;19885;42.208;24.952;2022-12-13T12:03:50;7.70;;;3.83;;
33553;SDS011;19885;42.208;24.952;2022-12-13T12:06:24;6.93;;;3.80;;
33553;SDS011;19885;42.208;24.952;2022-12-13T12:09:00;8.07;;;4.33;;
33553;SDS011;19885;42.208;24.952;2022-12-13T12:14:15;4.90;;;3.43;;
33553;SDS011;19885;42.208;24.952;2022-12-13T12:17:01;6.00;;;3.27;;
33553;SDS011;19885;42.208;24.952;2022-12-13T12:19:37;5.57;;;3.60;;
33553;SDS011;19885;42.208;24.952;2022-12-13T12:22:23;10.87;;;4.57;;
33553;SDS011;19885;42.208;24.952;2022-12-13T12:27:46;5.00;;;3.83;;
33553;SDS011;19885;42.208;24.952;2022-12-13T12:38:00;9.23;;;4.50;;
33553;SDS011;19885;42.208;24.952;2022-12-13T12:41:02;3.90;;;3.43;;
33553;SDS011;19885;42.208;24.952;2022-12-13T13:03:35;6.87;;;4.30;;
33553;SDS011;19885;42.208;24.952;2022-12-13T13:06:13;7.07;;;4.37;;
33553;SDS011;19885;42.208;24.952;2022-12-13T13:11:13;5.13;;;4.13;;
33553;SDS011;19885;42.208;24.952;2022-12-13T13:19:00;9.63;;;4.93;;
33553;SDS011;19885;42.208;24.952;2022-12-13T13:21:50;4.27;;;3.53;;
33553;SDS011;19885;42.208;24.952;2022-12-13T13:24:22;6.20;;;4.27;;
33553;SDS011;19885;42.208;24.952;2022-12-13T13:31:57;6.73;;;3.07;;
33553;SDS011;19885;42.208;24.952;2022-12-13T13:34:27;5.93;;;3.97;;
33553;SDS011;19885;42.208;24.952;2022-12-13T13:36:53;7.47;;;4.17;;
33553;SDS011;19885;42.208;24.952;2022-12-13T13:41:53;5.23;;;3.60;;
33553;SDS011;19885;42.208;24.952;2022-12-13T13:44:33;5.33;;;4.17;;
33553;SDS011;19885;42.208;24.952;2022-12-13T13:49:53;6.97;;;4.17;;
33553;SDS011;19885;42.208;24.952;2022-12-13T13:52:24;8.73;;;5.10;;
33553;SDS011;19885;42.208;24.952;2022-12-13T14:06:12;10.73;;;4.93;;
33553;SDS011;19885;42.208;24.952;2022-12-13T14:08:49;5.10;;;3.83;;
33553;SDS011;19885;42.208;24.952;2022-12-13T14:14:46;6.53;;;4.10;;
33553;SDS011;19885;42.208;24.952;2022-12-13T14:28:55;13.73;;;6.43;;
33553;SDS011;19885;42.208;24.952;2022-12-13T14:31:23;8.93;;;5.70;;
33553;SDS011;19885;42.208;24.952;2022-12-13T14:33:55;6.83;;;5.03;;
33553;SDS011;19885;42.208;24.952;2022-12-13T14:36:28;6.90;;;4.60;;
33553;SDS011;19885;42.208;24.952;2022-12-13T14:39:15;8.33;;;5.30;;
33553;SDS011;19885;42.208;24.952;2022-12-13T14:41:45;12.03;;;7.00;;
33553;SDS011;19885;42.208;24.952;2022-12-13T14:44:12;17.27;;;8.50;;
33553;SDS011;19885;42.208;24.952;2022-12-13T14:46:52;22.67;;;12.30;;
33553;SDS011;19885;42.208;24.952;2022-12-13T14:49:20;31.73;;;16.87;;
33553;SDS011;19885;42.208;24.952;2022-12-13T14:51:48;59.50;;;25.97;;
33553;SDS011;19885;42.208;24.952;2022-12-13T14:54:18;85.67;;;38.27;;
33553;SDS011;19885;42.208;24.952;2022-12-13T14:57:00;163.63;;;59.63;;
33553;SDS011;19885;42.208;24.952;2022-12-13T14:59:28;148.80;;;59.80;;
33553;SDS011;19885;42.208;24.952;2022-12-13T15:02:03;95.67;;;40.23;;
33553;SDS011;19885;42.208;24.952;2022-12-13T15:04:33;64.20;;;31.27;;
33553;SDS011;19885;42.208;24.952;2022-12-13T15:07:01;72.97;;;39.00;;
33553;SDS011;19885;42.208;24.952;2022-12-13T15:09:33;69.37;;;35.43;;
33553;SDS011;19885;42.208;24.952;2022-12-13T15:12:01;36.87;;;20.30;;
33553;SDS011;19885;42.208;24.952;2022-12-13T15:14:34;55.27;;;30.30;;
33553;SDS011;19885;42.208;24.952;2022-12-13T15:17:02;61.23;;;29.73;;
33553;SDS011;19885;42.208;24.952;2022-12-13T15:19:28;114.33;;;54.13;;
33553;SDS011;19885;42.208;24.952;2022-12-13T15:21:58;142.47;;;64.20;;
33553;SDS011;19885;42.208;24.952;2022-12-13T15:24:27;187.73;;;80.00;;
33553;SDS011;19885;42.208;24.952;2022-12-13T15:26:55;132.93;;;57.73;;
33553;SDS011;19885;42.208;24.952;2022-12-13T15:29:23;162.83;;;70.77;;
33553;SDS011;19885;42.208;24.952;2022-12-13T15:31:51;176.53;;;74.50;;
33553;SDS011;19885;42.208;24.952;2022-12-13T15:37:19;105.10;;;43.50;;
33553;SDS011;19885;42.208;24.952;2022-12-13T15:39:46;200.50;;;78.20;;
33553;SDS011;19885;42.208;24.952;2022-12-13T15:42:20;200.40;;;83.97;;
33553;SDS011;19885;42.208;24.952;2022-12-13T15:44:53;165.23;;;70.20;;
33553;SDS011;19885;42.208;24.952;2022-12-13T15:47:22;145.23;;;62.70;;
33553;SDS011;19885;42.208;24.952;2022-12-13T15:49:59;91.90;;;44.90;;
33553;SDS011;19885;42.208;24.952;2022-12-13T15:52:39;40.93;;;22.63;;
33553;SDS011;19885;42.208;24.952;2022-12-13T15:57:34;79.00;;;38.00;;
33553;SDS011;19885;42.208;24.952;2022-12-13T16:00:24;41.43;;;21.50;;
33553;SDS011;19885;42.208;24.952;2022-12-13T16:02:57;40.63;;;19.80;;
33553;SDS011;19885;42.208;24.952;2022-12-13T16:05:33;33.53;;;19.20;;
33553;SDS011;19885;42.208;24.952;2022-12-13T16:08:13;24.43;;;12.67;;
33553;SDS011;19885;42.208;24.952;2022-12-13T16:10:47;19.03;;;10.67;;
33553;SDS011;19885;42.208;24.952;2022-12-13T16:13:19;23.30;;;10.83;;
33553;SDS011;19885;42.208;24.952;2022-12-13T16:15:49;19.97;;;9.37;;
33553;SDS011;19885;42.208;24.952;2022-12-13T16:20:46;23.93;;;10.60;;
33553;SDS011;19885;42.208;24.952;2022-12-13T16:23:14;19.53;;;9.20;;
33553;SDS011;19885;42.208;24.952;2022-12-13T16:25:40;15.43;;;9.70;;
33553;SDS011;19885;42.208;24.952;2022-12-13T16:28:05;19.57;;;11.40;;
33553;SDS011;19885;42.208;24.952;2022-12-13T16:33:21;14.70;;;8.53;;
33553;SDS011;19885;42.208;24.952;2022-12-13T16:35:48;25.70;;;11.27;;
33553;SDS011;19885;42.208;24.952;2022-12-13T16:38:14;22.87;;;11.23;;
33553;SDS011;19885;42.208;24.952;2022-12-13T16:40:40;30.77;;;13.60;;
33553;SDS011;19885;42.208;24.952;2022-12-13T16:43:13;35.47;;;16.07;;
33553;SDS011;19885;42.208;24.952;2022-12-13T16:45:47;34.27;;;15.03;;
33553;SDS011;19885;42.208;24.952;2022-12-13T16:48:14;34.17;;;15.53;;
33553;SDS011;19885;42.208;24.952;2022-12-13T16:50:40;59.43;;;22.53;;
33553;SDS011;19885;42.208;24.952;2022-12-13T16:53:06;32.27;;;13.83;;
33553;SDS011;19885;42.208;24.952;2022-12-13T16:55:32;23.87;;;11.63;;
33553;SDS011;19885;42.208;24.952;2022-12-13T16:57:58;29.17;;;12.30;;
33553;SDS011;19885;42.208;24.952;2022-12-13T17:00:26;24.13;;;11.20;;
33553;SDS011;19885;42.208;24.952;2022-12-13T17:02:53;23.50;;;10.77;;
33553;SDS011;19885;42.208;24.952;2022-12-13T17:05:19;24.43;;;12.03;;
33553;SDS011;19885;42.208;24.952;2022-12-13T17:07:44;22.97;;;10.30;;
33553;SDS011;19885;42.208;24.952;2022-12-13T17:10:10;28.47;;;11.20;;